Time;durP1;ratioP1;P1;durP2;ratioP2;P2;SDS_P1;SDS_P2;PMS_P1;PMS_P2;Temp;Humidity;BMP_temperature;BMP_pressure;BME280_temperature;BME280_humidity;BME280_pressure;Samples;Min_cycle;Max_cycle;Signal;HPM_P1;HPM_P2
2024/03/04 00:02:24;;;;;;;;;;;;;;;-144.99;100.00;52474.59;4936822;28;19984;-74
2024/03/04 00:04:51;;;;;;;;;;;;;;;-144.99;100.00;52431.78;4940364;28;20024;-73
2024/03/04 00:07:17;;;;;;;;;;;;;;;-144.99;100.00;52468.47;4952777;28;19937;-72
2024/03/04 00:09:44;;;;;;;;;;;;;;;-144.99;100.00;52460.31;4967419;28;19978;-73
2024/03/04 00:12:11;;;;;;;;;;;;;;;-144.99;100.00;52444.03;4932073;28;20041;-73
2024/03/04 00:14:37;;;;;;;;;;;;;;;-144.99;100.00;52427.72;4928614;28;20006;-74
2024/03/04 00:17:05;;;;;;;;;;;;;;;-144.99;100.00;52456.25;4936231;28;19930;-72
2024/03/04 00:19:32;;;;;;;;;;;;;;;-144.99;100.00;52411.41;4946296;28;20233;-72
2024/03/04 00:21:59;;;;;;;;;;;;;;;-144.99;100.00;52439.94;4939468;28;20021;-71
2024/03/04 00:24:25;;;;;;;;;;;;;;;-144.99;100.00;52419.56;4935452;28;20010;-73
2024/03/04 00:26:52;;;;;;;;;;;;;;;-144.99;100.00;52407.31;4931659;28;20053;-71
2024/03/04 00:29:18;;;;;;;;;;;;;;;-144.99;100.00;52439.94;4937401;28;19981;-72
2024/03/04 00:31:45;;;;;;;;;;;;;;;-144.99;100.00;52462.34;4949599;28;20032;-70
2024/03/04 00:34:12;;;;;;;;;;;;;;;-144.99;100.00;52431.78;4950902;28;19930;-70
2024/03/04 00:36:40;;;;;;;;;;;;;;;-144.99;100.00;52431.78;4949840;28;19927;-70
2024/03/04 00:39:09;;;;;;;;;;;;;;;-144.99;100.00;52448.09;4960720;28;20365;-69
2024/03/04 00:41:36;;;;;;;;;;;;;;;-144.99;100.00;52444.03;4953127;28;19931;-69
2024/03/04 00:44:02;;;;;;;;;;;;;;;-144.99;100.00;52431.78;4953784;28;19979;-67
2024/03/04 00:46:29;;;;;;;;;;;;;;;-144.99;100.00;52425.66;4941212;28;19949;-70
2024/03/04 00:48:56;;;;;;;;;;;;;;;-144.99;100.00;52427.72;4946770;28;20068;-70
2024/03/04 00:51:23;;;;;;;;;;;;;;;-144.99;100.00;52423.63;4956376;28;19950;-70
2024/03/04 00:53:51;;;;;;;;;;;;;;;-144.99;100.00;52466.44;4941895;28;20017;-70
2024/03/04 00:56:18;;;;;;;;;;;;;;;-144.99;100.00;52448.09;4948739;28;19931;-69
2024/03/04 00:58:44;;;;;;;;;;;;;;;-144.99;100.00;52448.09;4957311;28;19959;-69
2024/03/04 01:01:11;;;;;;;;;;;;;;;-144.99;100.00;52444.03;4935783;28;19927;-69
2024/03/04 01:03:37;;;;;;;;;;;;;;;-144.99;100.00;52448.09;4963214;28;20008;-69
2024/03/04 01:06:04;;;;;;;;;;;;;;;-144.99;100.00;52423.63;4933451;28;19973;-70
2024/03/04 01:08:31;;;;;;;;;;;;;;;-144.99;100.00;52378.78;4966693;28;20430;-71
2024/03/04 01:10:59;;;;;;;;;;;;;;;-144.99;100.00;52439.94;4947217;28;20381;-71
2024/03/04 01:13:25;;;;;;;;;;;;;;;-144.99;100.00;52374.72;4941554;28;20452;-68
2024/03/04 01:15:52;;;;;;;;;;;;;;;-144.99;100.00;52456.25;4952040;28;20060;-68
2024/03/04 01:18:20;;;;;;;;;;;;;;;-144.99;100.00;52413.44;4966075;28;19970;-68
2024/03/04 01:20:46;;;;;;;;;;;;;;;-144.99;100.00;52452.16;4957240;28;19946;-68
2024/03/04 01:23:13;;;;;;;;;;;;;;;-144.99;100.00;52411.41;4952465;28;19927;-68
2024/03/04 01:25:39;;;;;;;;;;;;;;;-144.99;100.00;52435.88;4956580;28;19927;-69
2024/03/04 01:28:08;;;;;;;;;;;;;;;-144.99;100.00;52431.78;4961229;28;20016;-68
2024/03/04 01:30:35;;;;;;;;;;;;;;;-144.99;100.00;52419.56;4946577;28;19959;-63
2024/03/04 01:33:03;;;;;;;;;;;;;;;-144.99;100.00;52441.97;4958139;28;19926;-62
2024/03/04 01:35:29;;;;;;;;;;;;;;;-144.99;100.00;52411.41;4957053;28;19927;-61
2024/03/04 01:37:56;;;;;;;;;;;;;;;-144.99;100.00;52448.09;4956718;28;19977;-61
2024/03/04 01:40:22;;;;;;;;;;;;;;;-144.99;100.00;52454.22;4957032;28;19925;-61
2024/03/04 01:42:49;;;;;;;;;;;;;;;-144.99;100.00;52429.75;4945141;28;19988;-61
2024/03/04 01:45:24;;;;;;;;;;;;;;;-144.99;100.00;52431.78;4962123;28;19996;-62
2024/03/04 01:47:51;;;;;;;;;;;;;;;-144.99;100.00;52452.16;4955690;28;19974;-62
2024/03/04 01:50:19;;;;;;;;;;;;;;;-144.99;100.00;52454.22;4947975;28;20029;-66
2024/03/04 01:52:47;;;;;;;;;;;;;;;-144.99;100.00;52464.41;4948129;28;20360;-65
2024/03/04 01:55:14;;;;;;;;;;;;;;;-144.99;100.00;52444.03;4957452;28;20336;-66
2024/03/04 01:57:41;;;;;;;;;;;;;;;-144.99;100.00;52401.22;4952807;28;20164;-66
2024/03/04 02:00:11;;;;;;;;;;;;;;;-144.99;100.00;52456.25;4952857;28;19962;-66
2024/03/04 02:02:40;;;;;;;;;;;;;;;-144.99;100.00;52427.72;4955758;28;19926;-65
2024/03/04 02:05:09;;;;;;;;;;;;;;;-144.99;100.00;52448.09;4966394;28;19929;-65
2024/03/04 02:07:38;;;;;;;;;;;;;;;-144.99;100.00;52417.53;4943494;28;19933;-65
2024/03/04 02:10:06;;;;;;;;;;;;;;;-144.99;100.00;52435.88;4946304;28;19925;-68
2024/03/04 02:12:33;;;;;;;;;;;;;;;-144.99;100.00;52419.56;4966260;28;19965;-65
2024/03/04 02:15:00;;;;;;;;;;;;;;;-144.99;100.00;52448.09;4946942;28;19925;-63
2024/03/04 02:17:27;;;;;;;;;;;;;;;-144.99;100.00;52439.94;4958033;28;20008;-64
2024/03/04 02:19:56;;;;;;;;;;;;;;;-144.99;100.00;52444.03;4971355;28;20289;-63
2024/03/04 02:22:26;;;;;;;;;;;;;;;-144.99;100.00;52435.88;4939416;28;19927;-63
2024/03/04 02:24:53;;;;;;;;;;;;;;;-144.99;100.00;52456.25;4951685;28;20029;-65
2024/03/04 02:27:20;;;;;;;;;;;;;;;-144.99;100.00;52437.91;4944690;28;20013;-63
2024/03/04 02:29:48;;;;;;;;;;;;;;;-144.99;100.00;52395.09;4968422;28;19937;-64
2024/03/04 02:32:14;;;;;;;;;;;;;;;-144.99;100.00;52423.63;4959836;28;20426;-63
2024/03/04 02:34:41;;;;;;;;;;;;;;;-144.99;100.00;52421.59;4949170;28;19965;-62
2024/03/04 02:37:08;;;;;;;;;;;;;;;-144.99;100.00;52435.88;4955740;28;20427;-62
2024/03/04 02:39:37;;;;;;;;;;;;;;;-144.99;100.00;52407.31;4957383;28;19931;-62
2024/03/04 02:42:04;;;;;;;;;;;;;;;-144.99;100.00;52419.56;4962945;28;19958;-63
2024/03/04 02:44:31;;;;;;;;;;;;;;;-144.99;100.00;52446.06;4964144;28;19931;-62
2024/03/04 02:46:57;;;;;;;;;;;;;;;-144.99;100.00;52435.88;4961857;28;19927;-63
2024/03/04 02:49:24;;;;;;;;;;;;;;;-144.99;100.00;52427.72;4951883;28;20459;-63
2024/03/04 02:51:50;;;;;;;;;;;;;;;-144.99;100.00;52441.97;4965214;28;19965;-63
2024/03/04 02:54:17;;;;;;;;;;;;;;;-144.99;100.00;52435.88;4948074;28;19934;-68
2024/03/04 02:56:44;;;;;;;;;;;;;;;-144.99;100.00;52476.63;4945437;28;19933;-68
2024/03/04 02:59:11;;;;;;;;;;;;;;;-144.99;100.00;52417.53;4971942;28;20421;-67
2024/03/04 03:01:38;;;;;;;;;;;;;;;-144.99;100.00;52427.72;4934517;28;19927;-66
2024/03/04 03:04:04;;;;;;;;;;;;;;;-144.99;100.00;52456.25;4960599;28;20304;-66
2024/03/04 03:06:31;;;;;;;;;;;;;;;-144.99;100.00;52427.72;4973781;28;20092;-66
2024/03/04 03:08:58;;;;;;;;;;;;;;;-144.99;100.00;52431.78;4981416;28;20029;-66
2024/03/04 03:11:25;;;;;;;;;;;;;;;-144.99;100.00;52476.63;4956949;28;20029;-65
2024/03/04 03:13:52;;;;;;;;;;;;;;;-144.99;100.00;52444.03;4939030;28;20029;-66
2024/03/04 03:16:19;;;;;;;;;;;;;;;-144.99;100.00;52446.06;4973102;28;19929;-66
2024/03/04 03:18:46;;;;;;;;;;;;;;;-144.99;100.00;52427.72;4961098;28;19986;-66
2024/03/04 03:21:12;;;;;;;;;;;;;;;-144.99;100.00;52460.31;4954060;28;19974;-67
2024/03/04 03:23:39;;;;;;;;;;;;;;;-144.99;100.00;52409.38;4951926;28;20018;-67
2024/03/04 03:26:06;;;;;;;;;;;;;;;-144.99;100.00;52419.56;4965000;28;20003;-73
2024/03/04 03:28:33;;;;;;;;;;;;;;;-144.99;100.00;52427.72;4951599;28;19955;-66
2024/03/04 03:31:01;;;;;;;;;;;;;;;-144.99;100.00;52450.13;4957109;28;20312;-67
2024/03/04 03:33:27;;;;;;;;;;;;;;;-144.99;100.00;52448.09;4958508;28;19992;-66
2024/03/04 03:35:53;;;;;;;;;;;;;;;-144.99;100.00;52464.41;4958550;28;19961;-67
2024/03/04 03:38:20;;;;;;;;;;;;;;;-144.99;100.00;52460.31;4988817;28;20342;-67
2024/03/04 03:40:46;;;;;;;;;;;;;;;-144.99;100.00;52431.78;4951522;28;20466;-67
2024/03/04 03:43:13;;;;;;;;;;;;;;;-144.99;100.00;52431.78;4934358;28;20451;-68
2024/03/04 03:45:41;;;;;;;;;;;;;;;-144.99;100.00;52458.28;4985313;28;19925;-68
2024/03/04 03:48:09;;;;;;;;;;;;;;;-144.99;100.00;52456.25;4943521;28;20401;-68
2024/03/04 03:50:35;;;;;;;;;;;;;;;-144.99;100.00;52439.94;4978709;28;20088;-68
2024/03/04 03:53:02;;;;;;;;;;;;;;;-144.99;100.00;52446.06;4945105;28;20041;-68
2024/03/04 03:55:28;;;;;;;;;;;;;;;-144.99;100.00;52476.63;4966167;28;20016;-68
2024/03/04 03:57:55;;;;;;;;;;;;;;;-144.99;100.00;52448.09;4950337;28;19927;-66
2024/03/04 04:00:21;;;;;;;;;;;;;;;-144.99;100.00;52456.25;4937481;28;20237;-65
2024/03/04 04:02:48;;;;;;;;;;;;;;;-144.99;100.00;52425.66;4957385;28;20021;-63
2024/03/04 04:05:16;;;;;;;;;;;;;;;-144.99;100.00;52482.75;4962042;28;19970;-65
2024/03/04 04:07:42;;;;;;;;;;;;;;;-144.99;100.00;52448.09;4951301;28;20435;-65
2024/03/04 04:10:09;;;;;;;;;;;;;;;-144.99;100.00;52435.88;4960817;28;20321;-66
2024/03/04 04:12:35;;;;;;;;;;;;;;;-144.99;100.00;52456.25;4986001;28;19936;-65
2024/03/04 04:15:02;;;;;;;;;;;;;;;-144.99;100.00;52419.56;4963185;28;19948;-65
2024/03/04 04:17:28;;;;;;;;;;;;;;;-144.99;100.00;52439.94;4963707;28;19925;-64
2024/03/04 04:19:55;;;;;;;;;;;;;;;-144.99;100.00;52419.56;4961226;28;20300;-64
2024/03/04 04:22:23;;;;;;;;;;;;;;;-144.99;100.00;52431.78;4974909;28;20446;-64
2024/03/04 04:24:49;;;;;;;;;;;;;;;-144.99;100.00;52435.88;4988069;28;19934;-64
2024/03/04 04:27:16;;;;;;;;;;;;;;;-144.99;100.00;52460.31;4946337;28;20456;-64
2024/03/04 04:29:42;;;;;;;;;;;;;;;-144.99;100.00;52419.56;4968360;28;20356;-65
2024/03/04 04:32:11;;;;;;;;;;;;;;;-144.99;100.00;52444.03;4956735;28;19997;-64
2024/03/04 04:34:37;;;;;;;;;;;;;;;-144.99;100.00;52423.63;4951772;28;19931;-65
2024/03/04 04:37:04;;;;;;;;;;;;;;;-144.99;100.00;52441.97;4955894;28;20098;-66
2024/03/04 04:39:32;;;;;;;;;;;;;;;-144.99;100.00;52444.03;4947887;28;20013;-65
2024/03/04 04:41:58;;;;;;;;;;;;;;;-144.99;100.00;52435.88;4952030;28;20018;-65
2024/03/04 04:44:25;;;;;;;;;;;;;;;-144.99;100.00;52448.09;4955733;28;19930;-64
2024/03/04 04:46:51;;;;;;;;;;;;;;;-144.99;100.00;52431.78;4962128;28;20025;-64
2024/03/04 04:49:18;;;;;;;;;;;;;;;-144.99;100.00;52472.56;4954749;28;20054;-64
2024/03/04 04:51:44;;;;;;;;;;;;;;;-144.99;100.00;52444.03;4960189;28;20077;-65
2024/03/04 04:54:12;;;;;;;;;;;;;;;-144.99;100.00;52448.09;4948394;28;19985;-65
2024/03/04 04:56:40;;;;;;;;;;;;;;;-144.99;100.00;52439.94;4956984;28;20003;-64
2024/03/04 04:59:06;;;;;;;;;;;;;;;-144.99;100.00;52433.81;4960946;28;20385;-64
2024/03/04 05:01:32;;;;;;;;;;;;;;;-144.99;100.00;52472.56;4942733;28;19958;-67
2024/03/04 05:03:59;;;;;;;;;;;;;;;-144.99;100.00;52419.56;4967723;28;20013;-67
2024/03/04 05:06:26;;;;;;;;;;;;;;;-144.99;100.00;52476.63;4957644;28;19966;-67
2024/03/04 05:08:54;;;;;;;;;;;;;;;-144.99;100.00;52446.06;4959434;28;20236;-67
2024/03/04 05:11:22;;;;;;;;;;;;;;;-144.99;100.00;52474.59;4956143;28;19962;-67
2024/03/04 05:13:49;;;;;;;;;;;;;;;-144.99;100.00;52421.59;4946519;28;19984;-67
2024/03/04 05:16:16;;;;;;;;;;;;;;;-144.99;100.00;52441.97;5001943;28;20063;-68
2024/03/04 05:18:42;;;;;;;;;;;;;;;-144.99;100.00;52460.31;4947120;28;19927;-69
2024/03/04 05:21:09;;;;;;;;;;;;;;;-144.99;100.00;52431.78;4964318;28;19986;-70
2024/03/04 05:23:35;;;;;;;;;;;;;;;-144.99;100.00;52464.41;4953798;28;19980;-71
2024/03/04 05:26:03;;;;;;;;;;;;;;;-144.99;100.00;52452.16;4961338;28;20008;-71
2024/03/04 05:28:29;;;;;;;;;;;;;;;-144.99;100.00;52446.06;4941005;28;19927;-70
2024/03/04 05:30:58;;;;;;;;;;;;;;;-144.99;100.00;52486.81;4965256;28;20347;-70
2024/03/04 05:33:24;;;;;;;;;;;;;;;-144.99;100.00;52433.81;4955585;28;19934;-71
2024/03/04 05:35:51;;;;;;;;;;;;;;;-144.99;100.00;52464.41;4958415;28;19971;-71
2024/03/04 05:38:17;;;;;;;;;;;;;;;-144.99;100.00;52427.72;4951676;28;20128;-70
2024/03/04 05:40:44;;;;;;;;;;;;;;;-144.99;100.00;52450.13;4952177;28;20017;-63
2024/03/04 05:43:10;;;;;;;;;;;;;;;-144.99;100.00;52454.22;4936521;28;20258;-66
2024/03/04 05:45:36;;;;;;;;;;;;;;;-144.99;100.00;52464.41;4970803;28;19957;-66
2024/03/04 05:48:06;;;;;;;;;;;;;;;-144.99;100.00;52448.09;4944152;28;19965;-67
2024/03/04 05:50:33;;;;;;;;;;;;;;;-144.99;100.00;52444.03;4977638;28;20384;-66
2024/03/04 05:52:59;;;;;;;;;;;;;;;-144.99;100.00;52415.47;4947199;28;20011;-66
2024/03/04 05:55:26;;;;;;;;;;;;;;;-144.99;100.00;52448.09;4965876;28;19925;-67
2024/03/04 05:57:53;;;;;;;;;;;;;;;-144.99;100.00;52441.97;4950689;28;19950;-68
2024/03/04 06:00:19;;;;;;;;;;;;;;;-144.99;100.00;52427.72;4947350;28;19931;-66
2024/03/04 06:02:46;;;;;;;;;;;;;;;-144.99;100.00;52429.75;4945497;28;20019;-66
2024/03/04 06:05:14;;;;;;;;;;;;;;;-144.99;100.00;52448.09;4965264;28;20033;-67
2024/03/04 06:07:41;;;;;;;;;;;;;;;-144.99;100.00;52472.56;4950645;28;20353;-66
2024/03/04 06:10:08;;;;;;;;;;;;;;;-144.99;100.00;52431.78;4974492;28;20362;-66
2024/03/04 06:12:34;;;;;;;;;;;;;;;-144.99;100.00;52423.63;4974183;28;20017;-62
2024/03/04 06:15:01;;;;;;;;;;;;;;;-144.99;100.00;52460.31;4952419;28;19930;-68
2024/03/04 06:17:27;;;;;;;;;;;;;;;-144.99;100.00;52393.06;4940254;28;20007;-69
2024/03/04 06:19:54;;;;;;;;;;;;;;;-144.99;100.00;52401.22;4964505;28;19980;-69
2024/03/04 06:22:22;;;;;;;;;;;;;;;-144.99;100.00;52448.09;4948819;28;20010;-69
2024/03/04 06:24:48;;;;;;;;;;;;;;;-144.99;100.00;52480.72;4959756;28;20038;-69
2024/03/04 06:27:16;;;;;;;;;;;;;;;-144.99;100.00;52403.25;4947867;28;20005;-69
2024/03/04 06:29:42;;;;;;;;;;;;;;;-144.99;100.00;52415.47;4947405;28;20006;-68
2024/03/04 06:32:09;;;;;;;;;;;;;;;-144.99;100.00;52425.66;4606117;28;10000232;-68
2024/03/04 06:34:35;;;;;;;;;;;;;;;-144.99;100.00;52452.16;4941018;28;19931;-69
2024/03/04 06:37:02;;;;;;;;;;;;;;;-144.99;100.00;52435.88;4934524;28;20020;-68
2024/03/04 06:39:29;;;;;;;;;;;;;;;-144.99;100.00;52456.25;4937690;28;19962;-67
2024/03/04 06:41:56;;;;;;;;;;;;;;;-144.99;100.00;52444.03;4942530;28;20036;-68
2024/03/04 06:44:22;;;;;;;;;;;;;;;-144.99;100.00;52423.63;4956865;28;20566;-67
2024/03/04 06:46:49;;;;;;;;;;;;;;;-144.99;100.00;52456.25;5003658;28;20011;-67
2024/03/04 06:49:16;;;;;;;;;;;;;;;-144.99;100.00;52366.56;4945456;28;19970;-67
2024/03/04 06:51:42;;;;;;;;;;;;;;;-144.99;100.00;52441.97;4963574;28;20008;-67
2024/03/04 06:54:10;;;;;;;;;;;;;;;-144.99;100.00;52429.75;4946781;28;20433;-69
2024/03/04 06:56:37;;;;;;;;;;;;;;;-144.99;100.00;52456.25;4928906;28;19931;-68
2024/03/04 06:59:04;;;;;;;;;;;;;;;-144.99;100.00;52419.56;4940290;28;19965;-68
2024/03/04 07:01:30;;;;;;;;;;;;;;;-144.99;100.00;52399.19;4929003;28;20453;-68
2024/03/04 07:03:57;;;;;;;;;;;;;;;-144.99;100.00;52411.41;4955080;28;19984;-70
2024/03/04 07:06:24;;;;;;;;;;;;;;;-144.99;100.00;52456.25;4969814;28;20014;-68
2024/03/04 07:08:51;;;;;;;;;;;;;;;-144.99;100.00;52425.66;4998828;28;19993;-68
2024/03/04 07:11:18;;;;;;;;;;;;;;;-144.99;100.00;52423.63;4960294;28;19937;-69
2024/03/04 07:13:46;;;;;;;;;;;;;;;-144.99;100.00;52456.25;4948377;28;19930;-68
2024/03/04 07:16:15;;;;;;;;;;;;;;;-144.99;100.00;52444.03;4935420;28;19927;-69
2024/03/04 07:18:41;;;;;;;;;;;;;;;-144.99;100.00;52437.91;4977064;28;19996;-68
2024/03/04 07:21:08;;;;;;;;;;;;;;;-144.99;100.00;52433.81;4931197;28;20088;-68
2024/03/04 07:23:34;;;;;;;;;;;;;;;-144.99;100.00;52452.16;4944206;28;19988;-68
2024/03/04 07:26:04;;;;;;;;;;;;;;;-144.99;100.00;52464.41;4954046;28;19948;-68
2024/03/04 07:28:32;;;;;;;;;;;;;;;-144.99;100.00;52476.63;4939918;28;19978;-68
2024/03/04 07:31:00;;;;;;;;;;;;;;;-144.99;100.00;52435.88;4950220;28;19932;-69
2024/03/04 07:33:27;;;;;;;;;;;;;;;-144.99;100.00;52456.25;4945034;28;20025;-68
2024/03/04 07:35:53;;;;;;;;;;;;;;;-144.99;100.00;52431.78;4954945;28;20478;-67
2024/03/04 07:38:20;;;;;;;;;;;;;;;-144.99;100.00;52439.94;4926746;28;19943;-68
2024/03/04 07:40:46;;;;;;;;;;;;;;;-144.99;100.00;52425.66;4956135;28;20015;-68
2024/03/04 07:43:13;;;;;;;;;;;;;;;-144.99;100.00;52411.41;4934436;28;20026;-68
2024/03/04 07:45:39;;;;;;;;;;;;;;;-144.99;100.00;52446.06;4962657;28;19960;-68
2024/03/04 07:48:07;;;;;;;;;;;;;;;-144.99;100.00;52439.94;4943436;28;20041;-68
2024/03/04 07:50:34;;;;;;;;;;;;;;;-144.99;100.00;52466.44;5012493;28;20529;-67
2024/03/04 07:53:01;;;;;;;;;;;;;;;-144.99;100.00;52452.16;4944593;28;19931;-67
2024/03/04 07:55:27;;;;;;;;;;;;;;;-144.99;100.00;52417.53;4949618;28;19930;-70
2024/03/04 07:57:54;;;;;;;;;;;;;;;-144.99;100.00;52472.56;4949415;28;20389;-68
2024/03/04 08:00:21;;;;;;;;;;;;;;;-144.99;100.00;52427.72;4950879;28;19931;-68
2024/03/04 08:02:47;;;;;;;;;;;;;;;-144.99;100.00;52460.31;4947217;28;19931;-68
2024/03/04 08:05:15;;;;;;;;;;;;;;;-144.99;100.00;52450.13;4962774;28;20396;-69
2024/03/04 08:07:42;;;;;;;;;;;;;;;-144.99;100.00;52427.72;4948905;28;19926;-68
2024/03/04 08:10:09;;;;;;;;;;;;;;;-144.99;100.00;52476.63;4964746;28;20034;-69
2024/03/04 08:12:36;;;;;;;;;;;;;;;-144.99;100.00;52419.56;4937347;28;19927;-69
2024/03/04 08:15:03;;;;;;;;;;;;;;;-144.99;100.00;52413.44;4954965;28;20020;-69
2024/03/04 08:17:29;;;;;;;;;;;;;;;-144.99;100.00;52468.47;4961317;28;20008;-68
2024/03/04 08:19:58;;;;;;;;;;;;;;;-144.99;100.00;52452.16;4964640;28;20300;-68
2024/03/04 08:22:26;;;;;;;;;;;;;;;-144.99;100.00;52439.94;4926750;28;19931;-68
2024/03/04 08:24:53;;;;;;;;;;;;;;;-144.99;100.00;52419.56;4985753;28;20030;-68
2024/03/04 08:27:20;;;;;;;;;;;;;;;-144.99;100.00;52439.94;4942248;28;20018;-69
2024/03/04 08:29:46;;;;;;;;;;;;;;;-144.99;100.00;52454.22;4959981;28;19930;-68
2024/03/04 08:32:13;;;;;;;;;;;;;;;-144.99;100.00;52419.56;4951838;28;19939;-68
2024/03/04 08:34:39;;;;;;;;;;;;;;;-144.99;100.00;52407.31;4940458;28;20017;-68
2024/03/04 08:37:06;;;;;;;;;;;;;;;-144.99;100.00;52427.72;4945881;28;20017;-68
2024/03/04 08:39:34;;;;;;;;;;;;;;;-144.99;100.00;52403.25;4942579;28;19930;-69
2024/03/04 08:42:00;;;;;;;;;;;;;;;-144.99;100.00;52435.88;4944907;28;20638;-69
2024/03/04 08:44:30;;;;;;;;;;;;;;;-144.99;100.00;52460.31;4948834;28;20017;-68
2024/03/04 08:46:56;;;;;;;;;;;;;;;-144.99;100.00;52444.03;4945339;28;19935;-69
2024/03/04 08:49:23;;;;;;;;;;;;;;;-144.99;100.00;52407.31;4934754;28;19931;-68
2024/03/04 08:51:50;;;;;;;;;;;;;;;-144.99;100.00;52456.25;4960302;28;20368;-68
2024/03/04 08:54:16;;;;;;;;;;;;;;;-144.99;100.00;52423.63;4949706;28;20014;-69
2024/03/04 08:56:44;;;;;;;;;;;;;;;-144.99;100.00;52417.53;4954528;28;20431;-68
2024/03/04 08:59:11;;;;;;;;;;;;;;;-144.99;100.00;52439.94;4953514;28;19967;-69
2024/03/04 09:01:37;;;;;;;;;;;;;;;-144.99;100.00;52407.31;4939497;28;19978;-68
2024/03/04 09:04:04;;;;;;;;;;;;;;;-144.99;100.00;52439.94;5000396;28;20013;-68
2024/03/04 09:06:30;;;;;;;;;;;;;;;-144.99;100.00;52419.56;4958470;28;19934;-68
2024/03/04 09:08:57;;;;;;;;;;;;;;;-144.99;100.00;52431.78;4952416;28;20022;-70
2024/03/04 09:11:24;;;;;;;;;;;;;;;-144.99;100.00;52417.53;4962548;28;20457;-69
2024/03/04 09:13:55;;;;;;;;;;;;;;;-144.99;100.00;52456.25;4935534;28;19937;-69
2024/03/04 09:16:22;;;;;;;;;;;;;;;-144.99;100.00;52472.56;4942537;28;20046;-67
2024/03/04 09:18:49;;;;;;;;;;;;;;;-144.99;100.00;52433.81;4948754;28;19934;-69
2024/03/04 09:21:15;;;;;;;;;;;;;;;-144.99;100.00;52472.56;4942654;28;20348;-68
2024/03/04 09:23:42;;;;;;;;;;;;;;;-144.99;100.00;52423.63;4944038;28;19927;-68
2024/03/04 09:26:08;;;;;;;;;;;;;;;-144.99;100.00;52423.63;4951260;28;19929;-69
2024/03/04 09:28:35;;;;;;;;;;;;;;;-144.99;100.00;52431.78;4940181;28;20017;-69
2024/03/04 09:31:02;;;;;;;;;;;;;;;-144.99;100.00;52423.63;4952312;28;20009;-69
2024/03/04 09:33:28;;;;;;;;;;;;;;;-144.99;100.00;52456.25;4952503;28;19926;-69
2024/03/04 09:35:55;;;;;;;;;;;;;;;-144.99;100.00;52427.72;4957590;28;20048;-70
2024/03/04 09:38:21;;;;;;;;;;;;;;;-144.99;100.00;52409.38;4947534;28;19930;-70
2024/03/04 09:40:51;;;;;;;;;;;;;;;-144.99;100.00;52444.03;4959475;28;20022;-69
2024/03/04 09:43:19;;;;;;;;;;;;;;;-144.99;100.00;52386.94;4935456;28;19970;-68
2024/03/04 09:45:48;;;;;;;;;;;;;;;-144.99;100.00;52425.66;4944398;28;20041;-69
2024/03/04 09:48:16;;;;;;;;;;;;;;;-144.99;100.00;52421.59;4941042;28;19984;-69
2024/03/04 09:50:43;;;;;;;;;;;;;;;-144.99;100.00;52411.41;4943947;28;19927;-69
2024/03/04 09:53:10;;;;;;;;;;;;;;;-144.99;100.00;52407.31;4933163;28;19970;-69
2024/03/04 09:55:37;;;;;;;;;;;;;;;-144.99;100.00;52407.31;4949103;28;20440;-69
2024/03/04 09:58:04;;;;;;;;;;;;;;;-144.99;100.00;52427.72;4946527;28;20461;-70
2024/03/04 10:00:31;;;;;;;;;;;;;;;-144.99;100.00;52444.03;4949822;28;19934;-70
2024/03/04 10:02:57;;;;;;;;;;;;;;;-144.99;100.00;52431.78;4942870;28;19931;-70
2024/03/04 10:05:25;;;;;;;;;;;;;;;-144.99;100.00;52431.78;4943442;28;19927;-69
2024/03/04 10:07:52;;;;;;;;;;;;;;;-144.99;100.00;52423.63;4948164;28;20045;-69
2024/03/04 10:10:18;;;;;;;;;;;;;;;-144.99;100.00;52431.78;4962989;28;19981;-69
2024/03/04 10:12:46;;;;;;;;;;;;;;;-144.99;100.00;52415.47;4950903;28;20021;-69
2024/03/04 10:15:13;;;;;;;;;;;;;;;-144.99;100.00;52435.88;4943696;28;20275;-70
2024/03/04 10:17:41;;;;;;;;;;;;;;;-144.99;100.00;52431.78;4951386;28;20319;-70
2024/03/04 10:20:08;;;;;;;;;;;;;;;-144.99;100.00;52409.38;4948510;28;19927;-69
2024/03/04 10:22:36;;;;;;;;;;;;;;;-144.99;100.00;52429.75;4940224;28;19974;-69
2024/03/04 10:25:04;;;;;;;;;;;;;;;-144.99;100.00;52393.06;4990901;28;20013;-68
2024/03/04 10:27:30;;;;;;;;;;;;;;;-144.99;100.00;52460.31;4950056;28;19940;-69
2024/03/04 10:30:09;;;;;;;;;;;;;;;-144.99;100.00;52415.47;4934023;28;19949;-69
2024/03/04 10:32:35;;;;;;;;;;;;;;;-144.99;100.00;52468.47;4971319;28;19937;-69
2024/03/04 10:35:04;;;;;;;;;;;;;;;-144.99;100.00;52391.03;4941732;28;20374;-69
2024/03/04 10:37:30;;;;;;;;;;;;;;;-144.99;100.00;52407.31;4965658;28;20327;-69
2024/03/04 10:39:58;;;;;;;;;;;;;;;-144.99;100.00;52425.66;4945867;28;20456;-69
2024/03/04 10:42:24;;;;;;;;;;;;;;;-144.99;100.00;52450.13;4956842;28;19931;-68
2024/03/04 10:44:52;;;;;;;;;;;;;;;-144.99;100.00;52448.09;4952346;28;19934;-69
2024/03/04 10:47:20;;;;;;;;;;;;;;;-144.99;100.00;52409.38;4945726;28;19938;-70
2024/03/04 10:49:49;;;;;;;;;;;;;;;-144.99;100.00;52393.06;4953743;28;20018;-70
2024/03/04 10:52:15;;;;;;;;;;;;;;;-144.99;100.00;52391.03;4940369;28;20081;-69
2024/03/04 10:54:42;;;;;;;;;;;;;;;-144.99;100.00;52409.38;4935665;28;20022;-71
2024/03/04 10:57:14;;;;;;;;;;;;;;;-144.99;100.00;52386.94;4960244;28;20019;-68
2024/03/04 10:59:42;;;;;;;;;;;;;;;-144.99;100.00;52417.53;4950197;28;20381;-69
2024/03/04 11:02:12;;;;;;;;;;;;;;;-144.99;100.00;52395.09;4948501;28;20435;-69
2024/03/04 11:04:41;;;;;;;;;;;;;;;-144.99;100.00;52407.31;4940768;28;20025;-68
2024/03/04 11:07:11;;;;;;;;;;;;;;;-144.99;100.00;52413.44;4951883;28;20372;-69
2024/03/04 11:09:38;;;;;;;;;;;;;;;-144.99;100.00;52393.06;4951590;28;19985;-69
2024/03/04 11:12:06;;;;;;;;;;;;;;;-144.99;100.00;52386.94;4973364;28;20026;-69
2024/03/04 11:14:37;;;;;;;;;;;;;;;-144.99;100.00;52399.19;4948258;28;19931;-69
2024/03/04 11:17:09;;;;;;;;;;;;;;;-144.99;100.00;52421.59;4952350;28;19927;-69
2024/03/04 11:19:39;;;;;;;;;;;;;;;-144.99;100.00;52374.72;4951126;28;19931;-69
2024/03/04 11:22:07;;;;;;;;;;;;;;;-144.99;100.00;52399.19;4936741;28;19999;-68
2024/03/04 11:24:34;;;;;;;;;;;;;;;-144.99;100.00;52319.69;4950101;28;19983;-69
2024/03/04 11:27:01;;;;;;;;;;;;;;;-144.99;98.74;52223.88;4944497;28;20017;-71
2024/03/04 11:29:28;;;;;;;;;;;;;;;-144.99;92.82;52252.44;5006508;28;20043;-69
2024/03/04 11:31:56;;;;;;;;;;;;;;;-144.99;88.52;52199.44;4942567;28;19938;-69
2024/03/04 11:34:23;;;;;;;;;;;;;;;-144.99;81.58;52191.28;4985090;28;19985;-69
2024/03/04 11:36:50;;;;;;;;;;;;;;;-144.99;75.44;52158.66;4930482;28;20008;-70
2024/03/04 11:39:17;;;;;;;;;;;;;;;-144.99;71.10;52158.66;4944841;28;20893;-69
2024/03/04 11:41:47;;;;;;;;;;;;;;;-144.99;67.45;52130.13;4943889;28;19995;-69
2024/03/04 11:44:14;;;;;;;;;;;;;;;-144.99;64.86;52091.41;4947907;28;20022;-69
2024/03/04 11:46:41;;;;;;;;;;;;;;;-144.99;63.22;52101.59;4947800;28;19977;-69
2024/03/04 11:49:28;;;;;;;;;;;;;;;-144.99;61.53;52166.81;4954799;28;19946;-69
2024/03/04 11:51:58;;;;;;;;;;;;;;;-144.99;61.29;52081.22;4935324;28;19926;-69
2024/03/04 11:54:30;;;;;;;;;;;;;;;-144.99;59.76;52113.84;4961231;28;19929;-70
2024/03/04 11:56:58;;;;;;;;;;;;;;;-144.99;58.77;52081.22;4973960;28;20007;-70
2024/03/04 11:59:25;;;;;;;;;;;;;;;-144.99;59.15;52126.06;4940930;28;20601;-70
2024/03/04 12:01:51;;;;;;;;;;;;;;;-144.99;57.86;52052.69;4955022;28;20362;-70
2024/03/04 12:04:18;;;;;;;;;;;;;;;-144.99;56.36;52097.53;4988053;28;19931;-70
2024/03/04 12:06:47;;;;;;;;;;;;;;;-144.99;55.46;52066.97;4951467;28;19935;-70
2024/03/04 12:09:16;;;;;;;;;;;;;;;-144.99;53.82;52060.84;4948414;28;19962;-70
2024/03/04 12:11:43;;;;;;;;;;;;;;;-144.99;54.21;52113.84;4966889;28;19925;-70
2024/03/04 12:14:09;;;;;;;;;;;;;;;-144.99;54.20;52073.06;4931405;28;20176;-70
2024/03/04 12:16:36;;;;;;;;;;;;;;;-144.99;54.36;52113.84;4931635;28;20392;-70
2024/03/04 12:19:02;;;;;;;;;;;;;;;-144.99;53.76;52069.00;4954870;28;20176;-69